Time;durP1;ratioP1;P1;durP2;ratioP2;P2;SDS_P1;SDS_P2;PMS_P1;PMS_P2;Temp;Humidity;BMP_temperature;BMP_pressure;BME280_temperature;BME280_humidity;BME280_pressure;Samples;Min_cycle;Max_cycle;Signal;HPM_P1;HPM_P2
2024/04/08 00:01:56;;;;;;;8.70;2.50;;;15.80;99.90;;;;;;7281199;19;20187;-76
2024/04/08 00:04:21;;;;;;;9.13;2.43;;;15.70;99.90;;;;;;7276571;19;20203;-75
2024/04/08 00:06:48;;;;;;;11.40;2.80;;;15.60;99.90;;;;;;7275564;19;20262;-76
2024/04/08 00:09:14;;;;;;;7.77;2.37;;;15.70;99.90;;;;;;7278832;19;20207;-75
2024/04/08 00:11:40;;;;;;;6.93;2.20;;;15.60;99.90;;;;;;7292023;19;20188;-76
2024/04/08 00:14:06;;;;;;;8.37;1.93;;;15.40;99.90;;;;;;7298385;19;20188;-76
2024/04/08 00:16:31;;;;;;;8.00;2.10;;;15.20;99.90;;;;;;7275493;19;20209;-76
2024/04/08 00:18:57;;;;;;;6.77;2.20;;;15.00;99.90;;;;;;7279061;19;20638;-75
2024/04/08 00:21:23;;;;;;;6.27;2.20;;;14.90;99.90;;;;;;7278402;19;20196;-75
2024/04/08 00:23:49;;;;;;;9.23;2.47;;;14.80;99.90;;;;;;7276131;19;20693;-76
2024/04/08 00:26:14;;;;;;;8.37;2.23;;;14.80;99.90;;;;;;7276564;19;20197;-75
2024/04/08 00:28:40;;;;;;;8.27;2.23;;;14.70;99.90;;;;;;7283156;19;20783;-76
2024/04/08 00:31:08;;;;;;;7.67;2.47;;;14.70;99.90;;;;;;7299436;19;20287;-75
2024/04/08 00:33:35;;;;;;;5.57;2.00;;;14.90;99.90;;;;;;7276701;19;20194;-75
2024/04/08 00:36:01;;;;;;;5.40;2.03;;;14.90;99.90;;;;;;7276330;19;20205;-75
2024/04/08 00:38:28;;;;;;;6.47;2.23;;;15.10;99.90;;;;;;7278544;19;20196;-75
2024/04/08 00:40:54;;;;;;;6.53;1.90;;;15.10;99.90;;;;;;7277505;19;20192;-76
2024/04/08 00:43:20;;;;;;;7.87;1.77;;;15.00;99.90;;;;;;7274595;19;20201;-77
2024/04/08 00:45:47;;;;;;;5.93;1.70;;;15.00;99.90;;;;;;7276478;19;20557;-77
2024/04/08 00:48:14;;;;;;;5.63;2.00;;;14.90;99.90;;;;;;7278454;19;20188;-78
2024/04/08 00:50:45;;;;;;;7.47;1.80;;;15.00;99.90;;;;;;7291018;19;20180;-76
2024/04/08 00:53:13;;;;;;;7.07;1.67;;;15.10;99.90;;;;;;7277888;19;20202;-77
2024/04/08 00:55:41;;;;;;;9.00;2.23;;;15.20;99.90;;;;;;7300482;19;20654;-73
2024/04/08 00:58:07;;;;;;;5.37;1.77;;;15.30;99.90;;;;;;7277982;19;20252;-76
2024/04/08 01:00:33;;;;;;;7.10;1.77;;;15.30;99.90;;;;;;7278722;19;20192;-76
2024/04/08 01:03:02;;;;;;;6.17;1.83;;;15.10;99.90;;;;;;7276868;19;21210;-78
2024/04/08 01:05:28;;;;;;;6.30;1.90;;;14.90;99.90;;;;;;7278023;19;20200;-77
2024/04/08 01:07:54;;;;;;;6.10;1.83;;;14.70;99.90;;;;;;7278849;19;20197;-77
2024/04/08 01:10:20;;;;;;;5.90;2.00;;;14.70;99.90;;;;;;7275873;19;20686;-76
2024/04/08 01:12:46;;;;;;;7.73;2.07;;;14.70;99.90;;;;;;7275022;19;20185;-77
2024/04/08 01:15:12;;;;;;;7.80;2.37;;;14.80;99.90;;;;;;7278573;19;20215;-76
2024/04/08 01:17:38;;;;;;;6.93;2.10;;;14.80;99.90;;;;;;7300850;19;20198;-76
2024/04/08 01:20:04;;;;;;;7.23;2.40;;;14.80;99.90;;;;;;7276339;19;20558;-77
2024/04/08 01:22:32;;;;;;;7.10;2.10;;;14.70;99.90;;;;;;7275306;19;20184;-77
2024/04/08 01:24:58;;;;;;;7.80;2.50;;;14.60;99.90;;;;;;7277005;19;20191;-77
2024/04/08 01:27:24;;;;;;;5.20;2.17;;;14.70;99.90;;;;;;7279305;19;20197;-77
2024/04/08 01:29:50;;;;;;;6.23;2.10;;;14.70;99.90;;;;;;7276066;19;20557;-77
2024/04/08 01:32:16;;;;;;;9.23;2.53;;;14.60;99.90;;;;;;7282052;19;20282;-77
2024/04/08 01:34:41;;;;;;;6.80;2.30;;;14.60;99.90;;;;;;7286422;19;20196;-77
2024/04/08 01:37:07;;;;;;;5.67;2.40;;;14.60;99.90;;;;;;7305633;19;20226;-76
2024/04/08 01:39:34;;;;;;;11.17;2.60;;;14.50;99.90;;;;;;7280927;19;20731;-77
2024/04/08 01:41:59;;;;;;;8.57;2.33;;;14.50;99.90;;;;;;7284031;19;20733;-76
2024/04/08 01:44:25;;;;;;;6.43;2.40;;;14.60;99.90;;;;;;7283225;19;20211;-78
2024/04/08 01:46:51;;;;;;;6.10;2.37;;;14.60;99.90;;;;;;7283910;19;20195;-76
2024/04/08 01:49:17;;;;;;;7.57;2.40;;;14.70;99.90;;;;;;7281715;19;20200;-76
2024/04/08 01:51:42;;;;;;;6.87;2.70;;;14.70;99.90;;;;;;7282889;19;20192;-76
2024/04/08 01:54:12;;;;;;;8.03;2.47;;;14.70;99.90;;;;;;7306243;19;20191;-76
2024/04/08 01:56:38;;;;;;;7.30;2.27;;;14.70;99.90;;;;;;7282224;19;20210;-76
2024/04/08 01:59:05;;;;;;;8.43;2.60;;;14.70;99.90;;;;;;7279510;19;20255;-76
2024/04/08 02:01:30;;;;;;;7.23;2.53;;;14.70;99.90;;;;;;7284832;19;20184;-76
2024/04/08 02:03:56;;;;;;;6.33;2.20;;;14.80;99.90;;;;;;7283407;19;20205;-76
2024/04/08 02:06:22;;;;;;;5.93;2.30;;;14.80;99.90;;;;;;7281330;19;20203;-77
2024/04/08 02:08:47;;;;;;;6.70;2.67;;;14.90;99.90;;;;;;7279883;19;20231;-77
2024/04/08 02:11:13;;;;;;;7.07;2.60;;;14.90;99.90;;;;;;7282951;19;20227;-73
2024/04/08 02:13:41;;;;;;;8.23;2.80;;;15.00;99.90;;;;;;7305067;19;20192;-76
2024/04/08 02:16:08;;;;;;;8.37;2.87;;;15.00;99.90;;;;;;7280491;19;20283;-77
2024/04/08 02:18:34;;;;;;;9.37;2.33;;;15.00;99.90;;;;;;7280875;19;20247;-76
2024/04/08 02:21:00;;;;;;;6.63;2.50;;;14.90;99.90;;;;;;7284893;19;20631;-76
2024/04/08 02:23:26;;;;;;;7.47;2.37;;;15.00;99.90;;;;;;7283595;19;20183;-76
2024/04/08 02:25:52;;;;;;;6.87;2.67;;;15.00;99.90;;;;;;7278947;19;20192;-76
2024/04/08 02:28:18;;;;;;;7.90;2.77;;;15.10;99.90;;;;;;7281869;19;20351;-76
2024/04/08 02:30:43;;;;;;;8.47;2.77;;;15.20;99.90;;;;;;7282463;19;20192;-77
2024/04/08 02:33:09;;;;;;;8.67;2.50;;;15.10;99.90;;;;;;7303643;19;20580;-77
2024/04/08 02:35:38;;;;;;;6.60;2.47;;;15.10;99.90;;;;;;7279276;19;20190;-76
2024/04/08 02:38:04;;;;;;;8.40;2.67;;;15.10;99.90;;;;;;7280957;19;20805;-77
2024/04/08 02:40:34;;;;;;;9.53;2.20;;;15.00;99.90;;;;;;7284350;19;20186;-74
2024/04/08 02:43:03;;;;;;;7.63;2.47;;;15.20;99.90;;;;;;7281427;19;20211;-74
2024/04/08 02:45:29;;;;;;;6.90;2.70;;;15.20;99.90;;;;;;7279912;19;20184;-74
2024/04/08 02:47:57;;;;;;;7.90;2.50;;;15.10;99.90;;;;;;7283340;19;20192;-74
2024/04/08 02:50:23;;;;;;;8.13;2.50;;;15.00;99.90;;;;;;7282802;19;20189;-77
2024/04/08 02:52:49;;;;;;;7.77;2.83;;;15.00;99.90;;;;;;7280199;19;20304;-77
2024/04/08 02:55:15;;;;;;;9.30;2.50;;;14.90;99.90;;;;;;7278693;19;20177;-77
2024/04/08 02:57:41;;;;;;;7.07;2.60;;;14.70;99.90;;;;;;7288304;19;20189;-77
2024/04/08 03:00:07;;;;;;;9.57;2.63;;;14.60;99.90;;;;;;7304003;19;20187;-77
2024/04/08 03:02:32;;;;;;;9.77;2.63;;;14.40;99.90;;;;;;7278931;19;20653;-76
2024/04/08 03:04:58;;;;;;;5.57;2.40;;;14.30;99.90;;;;;;7278373;19;20197;-77
2024/04/08 03:07:24;;;;;;;8.17;2.37;;;14.30;99.90;;;;;;7283205;19;20205;-77
2024/04/08 03:09:51;;;;;;;8.57;2.70;;;14.20;99.90;;;;;;7281292;19;20198;-76
2024/04/08 03:12:17;;;;;;;6.37;2.13;;;14.00;99.90;;;;;;7278282;19;20205;-75
2024/04/08 03:14:43;;;;;;;7.53;2.63;;;13.90;99.90;;;;;;7279884;19;20193;-75
2024/04/08 03:17:08;;;;;;;8.57;2.67;;;13.70;99.90;;;;;;7303261;19;20190;-76
2024/04/08 03:19:34;;;;;;;6.70;2.37;;;13.60;99.90;;;;;;7281925;19;20201;-76
2024/04/08 03:22:00;;;;;;;6.80;2.67;;;13.50;99.90;;;;;;7278908;19;20207;-75
2024/04/08 03:24:29;;;;;;;8.27;2.63;;;13.60;99.90;;;;;;7279760;19;20199;-76
2024/04/08 03:26:55;;;;;;;6.80;2.70;;;13.70;99.90;;;;;;7281474;19;20189;-76
2024/04/08 03:29:20;;;;;;;9.80;2.80;;;13.60;99.90;;;;;;7279376;19;20214;-75
2024/04/08 03:31:47;;;;;;;8.03;2.50;;;13.60;99.90;;;;;;7275859;19;20316;-75
2024/04/08 03:34:12;;;;;;;8.40;3.10;;;13.60;99.90;;;;;;7280781;19;20635;-74
2024/04/08 03:36:38;;;;;;;11.53;3.53;;;13.50;99.90;;;;;;7302141;19;20281;-75
2024/04/08 03:39:04;;;;;;;8.40;3.10;;;13.40;99.90;;;;;;7279680;19;20185;-75
2024/04/08 03:41:30;;;;;;;9.63;3.30;;;13.40;99.90;;;;;;7276958;19;20199;-75
2024/04/08 03:43:56;;;;;;;7.87;3.13;;;13.30;99.90;;;;;;7278666;19;20645;-74
2024/04/08 03:46:22;;;;;;;7.77;3.37;;;13.30;99.90;;;;;;7280898;19;20209;-75
2024/04/08 03:48:48;;;;;;;8.17;3.57;;;13.30;99.90;;;;;;7279233;19;20190;-75
2024/04/08 03:51:15;;;;;;;10.57;3.60;;;13.20;99.90;;;;;;7277540;19;20251;-74
2024/04/08 03:53:41;;;;;;;10.57;3.37;;;13.40;99.90;;;;;;7285877;19;20196;-74
2024/04/08 03:56:08;;;;;;;8.47;3.67;;;13.20;99.90;;;;;;7302165;19;20189;-75
2024/04/08 03:58:37;;;;;;;8.27;3.43;;;13.20;99.90;;;;;;7275814;19;20180;-75
2024/04/08 04:01:03;;;;;;;9.47;3.50;;;13.30;99.90;;;;;;7279141;19;20193;-75
2024/04/08 04:03:29;;;;;;;7.87;3.50;;;13.40;99.90;;;;;;7280126;19;20220;-75
2024/04/08 04:05:55;;;;;;;11.07;4.00;;;13.40;99.90;;;;;;7280570;19;20185;-75
2024/04/08 04:08:21;;;;;;;6.43;3.27;;;13.30;99.90;;;;;;7276215;19;20198;-75
2024/04/08 04:10:46;;;;;;;9.90;3.90;;;13.30;99.90;;;;;;7277310;19;20198;-75
2024/04/08 04:13:12;;;;;;;7.97;3.50;;;13.40;99.90;;;;;;7279403;19;20193;-75
2024/04/08 04:15:38;;;;;;;9.30;3.83;;;13.40;99.90;;;;;;7300801;19;20186;-75
2024/04/08 04:18:04;;;;;;;10.47;3.60;;;13.50;99.90;;;;;;7277061;19;20332;-75
2024/04/08 04:20:40;;;;;;;8.40;3.40;;;13.40;99.90;;;;;;7278692;19;20279;-75
2024/04/08 04:23:06;;;;;;;8.97;3.87;;;13.40;99.90;;;;;;7279140;19;20196;-75
2024/04/08 04:25:32;;;;;;;8.87;3.53;;;13.50;99.90;;;;;;7277408;19;20204;-75
2024/04/08 04:28:00;;;;;;;9.47;3.60;;;13.60;99.90;;;;;;7274373;19;20203;-75
2024/04/08 04:30:26;;;;;;;8.70;3.93;;;13.80;99.90;;;;;;7278173;19;20198;-76
2024/04/08 04:32:52;;;;;;;8.87;4.10;;;13.90;99.90;;;;;;7276116;19;20194;-75
2024/04/08 04:35:18;;;;;;;14.27;4.80;;;13.80;99.90;;;;;;7275907;19;20615;-75
2024/04/08 04:37:44;;;;;;;9.93;4.47;;;13.90;99.90;;;;;;7274757;19;20190;-75
2024/04/08 04:40:10;;;;;;;14.17;4.57;;;13.80;99.90;;;;;;7297814;19;20194;-75
2024/04/08 04:42:35;;;;;;;14.47;4.87;;;13.80;99.90;;;;;;7286732;19;20184;-75
2024/04/08 04:45:02;;;;;;;11.17;4.33;;;13.90;99.90;;;;;;7275385;19;20300;-75
2024/04/08 04:47:29;;;;;;;14.17;5.07;;;13.80;99.90;;;;;;7276487;19;20191;-75
2024/04/08 04:49:55;;;;;;;11.07;4.60;;;13.70;99.90;;;;;;7278172;19;20204;-75
2024/04/08 04:52:21;;;;;;;13.00;4.97;;;13.70;99.90;;;;;;7277348;19;20196;-74
2024/04/08 04:54:47;;;;;;;13.43;5.10;;;13.70;99.90;;;;;;7273759;19;20238;-75
2024/04/08 04:57:12;;;;;;;12.17;5.37;;;13.70;99.90;;;;;;7275622;19;20209;-75
2024/04/08 04:59:38;;;;;;;12.83;5.10;;;13.70;99.90;;;;;;7298627;19;20188;-75
2024/04/08 05:02:04;;;;;;;12.27;5.10;;;13.70;99.90;;;;;;7278228;19;20192;-76
2024/04/08 05:04:30;;;;;;;13.07;6.03;;;13.80;99.90;;;;;;7271493;19;20200;-76
2024/04/08 05:06:56;;;;;;;12.03;5.23;;;13.90;99.90;;;;;;7278428;19;20917;-76
2024/04/08 05:09:23;;;;;;;12.83;5.40;;;13.90;99.90;;;;;;7278996;19;20194;-77
2024/04/08 05:11:48;;;;;;;11.57;5.20;;;14.00;99.90;;;;;;7276908;19;20183;-76
2024/04/08 05:14:14;;;;;;;11.53;5.20;;;14.10;99.90;;;;;;7276152;19;20659;-76
2024/04/08 05:16:40;;;;;;;11.67;5.27;;;14.10;99.90;;;;;;7297102;19;20182;-76
2024/04/08 05:19:06;;;;;;;14.30;5.50;;;14.10;99.90;;;;;;7289054;19;20186;-77
2024/04/08 05:21:31;;;;;;;11.60;5.30;;;14.20;99.90;;;;;;7276868;19;21645;-77
2024/04/08 05:23:57;;;;;;;16.17;5.60;;;14.20;99.90;;;;;;7275479;19;20198;-76
2024/04/08 05:26:23;;;;;;;12.20;5.60;;;14.30;99.90;;;;;;7278887;19;20196;-78
2024/04/08 05:28:49;;;;;;;13.03;5.60;;;14.30;99.90;;;;;;7277191;19;20624;-76
2024/04/08 05:31:15;;;;;;;15.43;5.97;;;14.40;99.90;;;;;;7275915;19;20204;-75
2024/04/08 05:33:41;;;;;;;15.03;6.17;;;14.50;99.90;;;;;;7285255;19;20561;-75
2024/04/08 05:36:07;;;;;;;12.03;5.37;;;14.60;99.90;;;;;;7299497;19;20634;-75
2024/04/08 05:38:32;;;;;;;14.43;5.80;;;14.40;99.90;;;;;;7278792;19;20317;-75
2024/04/08 05:41:02;;;;;;;14.87;6.13;;;14.30;99.90;;;;;;7272890;19;20676;-75
2024/04/08 05:43:27;;;;;;;11.43;5.57;;;14.20;99.90;;;;;;7274986;19;20197;-74
2024/04/08 05:45:53;;;;;;;11.97;5.50;;;14.10;99.90;;;;;;7277720;19;20232;-76
2024/04/08 05:48:19;;;;;;;14.13;5.70;;;13.90;99.90;;;;;;7276589;19;20198;-75
2024/04/08 05:50:48;;;;;;;10.50;5.23;;;13.90;99.90;;;;;;7270894;19;20189;-76
2024/04/08 05:53:16;;;;;;;14.17;5.47;;;14.10;99.90;;;;;;7274531;19;20189;-76
2024/04/08 05:55:43;;;;;;;12.27;5.73;;;14.00;99.90;;;;;;7276592;19;20193;-76
2024/04/08 05:58:10;;;;;;;11.97;5.30;;;13.80;99.90;;;;;;7295734;19;20190;-76
2024/04/08 06:00:39;;;;;;;13.33;5.60;;;14.00;99.90;;;;;;7272733;19;20183;-76
2024/04/08 06:03:06;;;;;;;11.03;5.40;;;14.00;99.90;;;;;;7276097;19;20612;-78
2024/04/08 06:05:32;;;;;;;12.60;6.23;;;13.90;99.90;;;;;;7276708;19;20179;-77
2024/04/08 06:07:58;;;;;;;11.40;5.63;;;13.70;99.90;;;;;;7276062;19;20258;-76
2024/04/08 06:10:34;;;;;;;14.33;6.00;;;13.80;99.90;;;;;;7274103;19;20273;-76
2024/04/08 06:13:00;;;;;;;12.20;6.00;;;13.70;99.90;;;;;;7275257;19;20197;-77
2024/04/08 06:15:26;;;;;;;11.23;5.97;;;13.60;99.90;;;;;;7273508;19;20206;-77
2024/04/08 06:17:52;;;;;;;15.00;6.23;;;13.70;99.90;;;;;;7281700;19;20224;-77
2024/04/08 06:20:18;;;;;;;14.07;6.07;;;13.70;99.90;;;;;;7280607;19;20194;-77
2024/04/08 06:22:44;;;;;;;16.77;5.87;;;13.80;99.90;;;;;;7283178;19;20199;-76
2024/04/08 06:25:10;;;;;;;14.20;6.40;;;14.00;99.90;;;;;;7307076;19;20195;-77
2024/04/08 06:27:36;;;;;;;14.33;6.63;;;14.20;99.90;;;;;;7280253;19;20196;-76
2024/04/08 06:30:02;;;;;;;13.87;6.50;;;14.40;99.90;;;;;;7278405;19;20199;-76
2024/04/08 06:32:28;;;;;;;12.23;6.30;;;14.60;99.90;;;;;;7284436;19;20200;-76
2024/04/08 06:34:54;;;;;;;10.87;5.53;;;14.70;99.90;;;;;;7282059;19;20676;-76
2024/04/08 06:37:20;;;;;;;13.33;6.00;;;14.90;99.90;;;;;;7278188;19;20254;-76
2024/04/08 06:39:46;;;;;;;12.40;5.63;;;15.10;99.90;;;;;;7281822;19;20196;-76
2024/04/08 06:42:19;;;;;;;12.23;4.83;;;15.30;99.90;;;;;;7285442;19;20532;-77
2024/04/08 06:44:51;;;;;;;13.07;5.47;;;15.50;99.90;;;;;;7282431;19;20769;-77
2024/04/08 06:47:17;;;;;;;9.17;5.03;;;15.70;99.90;;;;;;7280906;19;20194;-76
2024/04/08 06:49:44;;;;;;;9.63;4.30;;;15.90;99.90;;;;;;7283352;19;20202;-77
2024/04/08 06:52:12;;;;;;;9.73;4.70;;;16.00;99.90;;;;;;7305055;19;20192;-76
2024/04/08 06:54:38;;;;;;;8.70;4.10;;;16.00;99.90;;;;;;7281604;19;20192;-77
2024/04/08 06:57:07;;;;;;;9.83;4.60;;;16.00;99.90;;;;;;7280091;19;21038;-77
2024/04/08 06:59:33;;;;;;;10.10;4.20;;;16.20;99.90;;;;;;7279724;19;20201;-77
2024/04/08 07:01:58;;;;;;;10.80;4.37;;;16.10;99.90;;;;;;7281810;19;20196;-77
2024/04/08 07:04:24;;;;;;;8.33;4.00;;;16.30;99.90;;;;;;7282049;19;20245;-77
2024/04/08 07:06:50;;;;;;;8.87;3.67;;;16.60;99.90;;;;;;7279122;19;20198;-76
2024/04/08 07:09:16;;;;;;;10.03;3.50;;;17.10;99.90;;;;;;7281952;19;20208;-77
2024/04/08 07:11:42;;;;;;;8.37;3.30;;;17.60;99.90;;;;;;7286545;19;20192;-77
2024/04/08 07:14:08;;;;;;;8.33;2.77;;;18.00;99.90;;;;;;7301359;19;20293;-77
2024/04/08 07:16:35;;;;;;;7.80;3.13;;;18.10;99.90;;;;;;7279486;19;20284;-77
2024/04/08 07:19:01;;;;;;;7.70;3.13;;;18.40;99.90;;;;;;7282058;19;20205;-77
2024/04/08 07:21:27;;;;;;;6.57;2.77;;;18.70;99.90;;;;;;7282487;19;20601;-77
2024/04/08 07:23:53;;;;;;;5.97;2.63;;;20.00;99.90;;;;;;7279882;19;20923;-77
2024/04/08 07:26:19;;;;;;;5.43;2.10;;;20.80;99.90;;;;;;7277660;19;20207;-77
2024/04/08 07:28:45;;;;;;;6.00;2.27;;;21.30;99.90;;;;;;7279405;19;20184;-77
2024/04/08 07:31:11;;;;;;;6.57;2.33;;;21.10;99.90;;;;;;7300827;19;21064;-77
2024/04/08 07:33:36;;;;;;;5.63;1.97;;;21.50;99.90;;;;;;7288876;19;20273;-77
2024/04/08 07:36:02;;;;;;;6.70;2.40;;;22.20;99.90;;;;;;7281587;19;20589;-77
2024/04/08 07:38:28;;;;;;;5.87;2.33;;;22.70;99.90;;;;;;7280125;19;20177;-77
2024/04/08 07:40:54;;;;;;;6.17;2.30;;;23.40;99.90;;;;;;7280875;19;20209;-77
2024/04/08 07:43:20;;;;;;;5.63;2.20;;;23.90;99.90;;;;;;7278647;19;20190;-77
2024/04/08 07:45:46;;;;;;;4.80;2.10;;;24.90;99.90;;;;;;7279430;19;20643;-75
2024/04/08 07:48:12;;;;;;;6.53;2.35;;;26.30;99.90;;;;;;7288532;19;20268;-75
2024/04/08 07:50:38;;;;;;;7.13;2.38;;;27.20;99.90;;;;;;7302690;19;20357;-77
2024/04/08 07:53:04;;;;;;;3.97;1.98;;;27.00;99.90;;;;;;7277704;19;20180;-77
2024/04/08 07:55:30;;;;;;;6.90;2.63;;;26.40;99.90;;;;;;7281832;19;20189;-77
2024/04/08 07:57:55;;;;;;;6.25;2.20;;;26.60;99.90;;;;;;7281914;19;20636;-77
2024/04/08 08:00:21;;;;;;;5.10;1.83;;;27.30;99.90;;;;;;7279964;19;20200;-75
2024/04/08 08:02:47;;;;;;;6.07;2.03;;;28.10;99.90;;;;;;7280399;19;20196;-75
2024/04/08 08:05:13;;;;;;;5.03;1.70;;;28.30;99.90;;;;;;7281723;19;20736;-75
2024/04/08 08:07:39;;;;;;;4.63;1.88;;;26.70;99.90;;;;;;7301021;19;20208;-77
2024/04/08 08:10:06;;;;;;;6.13;2.13;;;27.30;99.90;;;;;;7277189;19;20905;-77
2024/04/08 08:12:31;;;;;;;7.88;3.67;;;28.00;99.90;;;;;;7278412;19;20201;-76
2024/04/08 08:14:57;;;;;;;7.68;3.72;;;27.80;99.90;;;;;;7279497;19;20197;-75
2024/04/08 08:17:26;;;;;;;4.10;1.60;;;26.80;99.90;;;;;;7280476;19;20191;-75
2024/04/08 08:19:53;;;;;;;4.28;1.52;;;26.30;99.90;;;;;;7277834;19;20600;-75
2024/04/08 08:22:18;;;;;;;6.28;1.73;;;26.10;99.90;;;;;;7276248;19;20261;-75
2024/04/08 08:24:44;;;;;;;4.13;1.75;;;27.10;99.90;;;;;;7278971;19;20260;-75
2024/04/08 08:27:10;;;;;;;7.57;2.10;;;27.80;99.90;;;;;;7301680;19;20195;-75
2024/04/08 08:29:36;;;;;;;4.63;1.67;;;27.70;99.90;;;;;;7274954;19;20189;-75
2024/04/08 08:32:01;;;;;;;5.45;1.70;;;27.10;99.90;;;;;;7278262;19;20599;-76
2024/04/08 08:34:27;;;;;;;5.32;1.73;;;27.30;99.90;;;;;;7280096;19;20188;-75
2024/04/08 08:36:53;;;;;;;4.25;1.48;;;28.00;99.90;;;;;;7278476;19;20189;-75
2024/04/08 08:39:19;;;;;;;4.63;1.58;;;29.10;99.90;;;;;;7276174;19;20324;-76
2024/04/08 08:41:51;;;;;;;5.80;1.60;;;29.30;96.90;;;;;;7280255;19;20631;-76
2024/04/08 08:44:20;;;;;;;6.90;2.05;;;29.80;96.50;;;;;;7279058;19;20186;-76
2024/04/08 08:46:48;;;;;;;6.50;2.03;;;28.70;96.90;;;;;;7279196;19;20189;-75
2024/04/08 08:49:16;;;;;;;5.15;2.05;;;27.50;98.40;;;;;;7276461;19;20177;-76
2024/04/08 08:51:42;;;;;;;5.28;2.00;;;27.30;99.90;;;;;;7282365;19;20649;-75
2024/04/08 08:54:09;;;;;;;8.75;2.55;;;26.90;99.90;;;;;;7300781;19;20211;-75
2024/04/08 08:56:35;;;;;;;6.63;2.50;;;26.00;99.90;;;;;;7275864;19;20185;-76
2024/04/08 08:59:03;;;;;;;6.63;2.30;;;25.90;99.90;;;;;;7277309;19;20224;-76
2024/04/08 09:01:31;;;;;;;7.15;2.70;;;26.20;99.90;;;;;;7276536;19;20252;-76
2024/04/08 09:03:57;;;;;;;4.97;2.22;;;26.70;99.90;;;;;;7278831;19;20185;-76
2024/04/08 09:06:23;;;;;;;7.57;2.50;;;26.70;99.90;;;;;;7274878;19;20193;-76
2024/04/08 09:08:49;;;;;;;7.10;2.38;;;26.90;99.90;;;;;;7277446;19;20667;-76
2024/04/08 09:11:16;;;;;;;6.57;2.60;;;27.00;99.90;;;;;;7278110;19;20263;-76
2024/04/08 09:13:42;;;;;;;7.03;2.40;;;27.20;99.90;;;;;;7286110;19;20703;-76
2024/04/08 09:16:08;;;;;;;8.18;2.50;;;26.90;99.90;;;;;;7297649;19;20256;-76
2024/04/08 09:18:34;;;;;;;6.88;2.42;;;26.60;99.90;;;;;;7277235;19;20195;-76
2024/04/08 09:21:00;;;;;;;6.00;2.13;;;26.80;99.90;;;;;;7278894;19;20189;-76
2024/04/08 09:23:26;;;;;;;5.97;2.00;;;26.70;99.90;;;;;;7278346;19;20189;-76
2024/04/08 09:25:52;;;;;;;6.43;2.30;;;26.40;99.90;;;;;;7274956;19;20181;-76
2024/04/08 09:28:17;;;;;;;5.15;1.63;;;25.60;99.90;;;;;;7278073;19;20191;-76
2024/04/08 09:30:44;;;;;;;4.70;1.50;;;25.10;99.90;;;;;;7278000;19;20204;-76
2024/04/08 09:33:12;;;;;;;3.45;1.25;;;25.20;99.90;;;;;;7297291;19;20260;-76
2024/04/08 09:35:42;;;;;;;3.55;1.35;;;25.40;99.90;;;;;;7275330;19;20192;-76
2024/04/08 09:38:10;;;;;;;3.85;1.42;;;25.90;99.90;;;;;;7277112;19;20634;-76
2024/04/08 09:40:39;;;;;;;3.45;1.20;;;26.80;99.90;;;;;;7277749;19;20188;-76
2024/04/08 09:43:07;;;;;;;4.18;1.42;;;26.70;99.90;;;;;;7276354;19;20706;-76
2024/04/08 09:45:35;;;;;;;6.70;1.70;;;25.80;99.90;;;;;;7276485;19;20629;-77
2024/04/08 09:48:01;;;;;;;4.28;1.70;;;25.20;99.90;;;;;;7278344;19;20804;-76
2024/04/08 09:50:28;;;;;;;6.22;1.80;;;24.60;99.90;;;;;;7279909;19;20188;-76
2024/04/08 09:52:54;;;;;;;5.30;1.58;;;24.90;99.90;;;;;;7281442;19;20203;-75
2024/04/08 09:55:27;;;;;;;3.47;1.30;;;25.00;99.90;;;;;;7282017;19;20185;-76
2024/04/08 09:57:57;;;;;;;5.55;1.60;;;25.20;99.90;;;;;;7284065;19;20266;-76
2024/04/08 10:00:25;;;;;;;6.75;1.30;;;25.60;99.90;;;;;;7281338;19;20263;-76
2024/04/08 10:02:55;;;;;;;5.00;1.10;;;25.40;99.90;;;;;;7281213;19;20276;-76
2024/04/08 10:05:22;;;;;;;3.95;1.13;;;25.20;99.90;;;;;;7284929;19;20594;-77
2024/04/08 10:07:49;;;;;;;4.10;1.20;;;25.00;99.90;;;;;;7285459;19;20184;-76
2024/04/08 10:10:15;;;;;;;4.85;0.98;;;24.70;99.90;;;;;;7282765;19;20196;-76
2024/04/08 10:12:45;;;;;;;3.03;1.15;;;24.60;99.90;;;;;;7297025;19;20181;-76
2024/04/08 10:15:12;;;;;;;4.25;1.38;;;25.10;99.90;;;;;;7305546;19;20189;-76
2024/04/08 10:17:41;;;;;;;6.78;1.30;;;25.00;99.90;;;;;;7284376;19;20195;-76
2024/04/08 10:20:10;;;;;;;4.15;1.00;;;25.00;99.90;;;;;;7281041;19;20539;-76
2024/04/08 10:22:36;;;;;;;2.97;1.20;;;25.00;99.90;;;;;;7281577;19;20710;-76
2024/04/08 10:25:02;;;;;;;4.22;1.20;;;25.20;99.90;;;;;;7282635;19;20278;-76
2024/04/08 10:27:28;;;;;;;3.67;1.13;;;25.40;99.90;;;;;;7281322;19;20252;-76
2024/04/08 10:29:58;;;;;;;4.72;1.00;;;25.40;99.90;;;;;;7279703;19;21009;-76
2024/04/08 10:32:24;;;;;;;3.72;1.30;;;25.40;99.90;;;;;;7279687;19;20197;-75
2024/04/08 10:34:53;;;;;;;3.67;0.90;;;25.20;99.90;;;;;;7282194;19;20185;-76
2024/04/08 10:37:19;;;;;;;3.55;1.10;;;24.80;99.90;;;;;;7282900;19;20205;-76
2024/04/08 10:39:45;;;;;;;4.50;1.20;;;24.80;99.90;;;;;;7280625;19;20185;-76
2024/04/08 10:42:19;;;;;;;4.97;1.13;;;24.90;99.90;;;;;;7304362;19;20215;-76
2024/04/08 10:44:45;;;;;;;2.25;1.00;;;25.10;99.90;;;;;;7261834;19;20205;-76
2024/04/08 10:47:11;;;;;;;3.22;1.40;;;25.30;99.90;;;;;;7303953;19;20185;-76
2024/04/08 10:49:40;;;;;;;3.85;1.20;;;24.70;99.90;;;;;;7279241;19;20608;-76
2024/04/08 10:52:06;;;;;;;3.10;1.08;;;24.10;99.90;;;;;;7282617;19;20209;-77
2024/04/08 10:54:32;;;;;;;2.67;1.00;;;23.30;99.90;;;;;;7281989;19;20194;-76
2024/04/08 10:56:58;;;;;;;6.93;2.17;;;22.80;99.90;;;;;;7283679;19;20552;-76
2024/04/08 10:59:24;;;;;;;9.80;2.90;;;22.40;99.90;;;;;;7279820;19;20185;-77
2024/04/08 11:01:50;;;;;;;4.80;1.40;;;22.10;99.90;;;;;;7282818;19;20999;-76
2024/04/08 11:04:18;;;;;;;5.97;1.60;;;21.70;99.90;;;;;;7282719;19;20211;-76
2024/04/08 11:06:43;;;;;;;6.00;2.10;;;21.10;99.90;;;;;;7279561;19;20304;-76
2024/04/08 11:09:10;;;;;;;6.97;2.13;;;20.80;99.90;;;;;;7302162;19;20186;-76
2024/04/08 11:11:36;;;;;;;9.83;2.30;;;20.40;99.90;;;;;;7282368;19;20526;-76
2024/04/08 11:14:02;;;;;;;5.90;1.90;;;20.60;99.90;;;;;;7280603;19;20207;-77
2024/04/08 11:16:28;;;;;;;7.80;1.80;;;20.60;99.90;;;;;;7277255;19;20184;-76
2024/04/08 11:18:55;;;;;;;5.50;2.17;;;20.60;99.90;;;;;;7280440;19;20186;-76
2024/04/08 11:21:20;;;;;;;10.63;2.80;;;20.70;99.90;;;;;;7281803;19;20635;-76
2024/04/08 11:23:46;;;;;;;7.57;2.07;;;20.80;99.90;;;;;;7281171;19;20192;-76
2024/04/08 11:26:12;;;;;;;5.90;2.07;;;20.90;99.90;;;;;;7288956;19;20203;-76
2024/04/08 11:28:38;;;;;;;8.83;2.20;;;21.20;99.90;;;;;;7301468;19;20226;-76
2024/04/08 11:31:08;;;;;;;6.10;2.00;;;20.80;99.90;;;;;;7281741;19;20193;-76
2024/04/08 11:33:34;;;;;;;8.10;2.13;;;21.00;99.90;;;;;;7283239;19;20196;-76
2024/04/08 11:36:00;;;;;;;8.60;2.47;;;20.90;99.90;;;;;;7279217;19;20194;-77
2024/04/08 11:38:26;;;;;;;7.83;2.57;;;21.00;99.90;;;;;;7281316;19;20628;-76
2024/04/08 11:40:54;;;;;;;7.07;2.43;;;21.20;99.90;;;;;;7282680;19;20200;-76
2024/04/08 11:43:20;;;;;;;6.33;2.00;;;21.40;99.90;;;;;;7279855;19;20199;-77
2024/04/08 11:45:45;;;;;;;7.03;2.37;;;21.50;99.90;;;;;;7279339;19;20194;-76
2024/04/08 11:48:11;;;;;;;5.73;1.80;;;21.40;99.90;;;;;;7302413;19;20202;-76
2024/04/08 11:50:37;;;;;;;5.73;1.93;;;21.30;99.90;;;;;;7291963;19;20196;-76
2024/04/08 11:53:03;;;;;;;6.90;1.70;;;21.00;99.90;;;;;;7279012;19;20181;-76
2024/04/08 11:55:29;;;;;;;7.40;1.87;;;20.90;99.90;;;;;;7278969;19;20194;-77
2024/04/08 11:57:54;;;;;;;7.67;2.37;;;21.00;99.90;;;;;;7281653;19;20227;-76
2024/04/08 12:00:20;;;;;;;7.13;1.80;;;21.10;99.90;;;;;;7283222;19;20209;-76
2024/04/08 12:02:47;;;;;;;7.83;2.20;;;21.20;99.90;;;;;;7280234;19;20207;-76
2024/04/08 12:05:13;;;;;;;4.67;1.70;;;21.20;99.90;;;;;;7285363;19;20206;-76
2024/04/08 12:07:39;;;;;;;6.47;1.60;;;21.50;99.90;;;;;;7303016;19;20191;-76
2024/04/08 12:10:09;;;;;;;5.90;1.30;;;21.70;99.90;;;;;;7282204;19;20215;-76
2024/04/08 12:12:36;;;;;;;4.57;1.00;;;21.70;99.90;;;;;;7278080;19;20191;-77
2024/04/08 12:15:04;;;;;;;4.43;1.20;;;21.70;99.90;;;;;;7278448;19;20809;-77
2024/04/08 12:17:30;;;;;;;6.20;1.10;;;21.70;99.90;;;;;;7282112;19;20661;-76
2024/04/08 12:19:55;;;;;;;4.07;1.17;;;21.50;99.90;;;;;;7279334;19;20219;-76
2024/04/08 12:22:22;;;;;;;5.03;1.23;;;21.10;99.90;;;;;;7277522;19;20192;-76
2024/04/08 12:24:47;;;;;;;4.73;1.40;;;21.10;99.90;;;;;;7280933;19;20198;-76
2024/04/08 12:27:13;;;;;;;6.43;1.47;;;21.60;99.90;;;;;;7298691;19;20250;-76
2024/04/08 12:29:40;;;;;;;2.20;0.90;;;22.40;99.90;;;;;;7293348;19;21889;-77
2024/04/08 12:32:06;;;;;;;11.37;4.40;;;23.30;99.90;;;;;;7277656;19;20515;-76
2024/04/08 12:34:32;;;;;;;3.37;1.13;;;23.80;99.90;;;;;;7279193;19;20192;-76
2024/04/08 12:36:58;;;;;;;3.70;1.00;;;23.40;99.90;;;;;;7280852;19;20201;-77
2024/04/08 12:39:24;;;;;;;5.27;1.60;;;22.90;99.90;;;;;;7279561;19;20192;-76
2024/04/08 12:41:49;;;;;;;4.50;1.20;;;22.60;99.90;;;;;;7278606;19;20215;-77